sensor_id;sensor_type;location;lat;lon;timestamp;temperature;humidity
21108;DHT22;10712;52.944;9.098;2023-04-03T00:01:00;0.70;84.80
21108;DHT22;10712;52.944;9.098;2023-04-03T00:03:27;0.70;84.90
21108;DHT22;10712;52.944;9.098;2023-04-03T00:05:53;0.80;84.80
21108;DHT22;10712;52.944;9.098;2023-04-03T00:08:19;0.80;84.80
21108;DHT22;10712;52.944;9.098;2023-04-03T00:10:46;0.90;84.80
21108;DHT22;10712;52.944;9.098;2023-04-03T00:13:12;0.90;84.50
21108;DHT22;10712;52.944;9.098;2023-04-03T00:15:40;0.90;83.70
21108;DHT22;10712;52.944;9.098;2023-04-03T00:18:07;0.80;83.60
21108;DHT22;10712;52.944;9.098;2023-04-03T00:20:33;0.80;83.50
21108;DHT22;10712;52.944;9.098;2023-04-03T00:23:01;0.80;83.60
21108;DHT22;10712;52.944;9.098;2023-04-03T00:25:27;0.80;83.90
21108;DHT22;10712;52.944;9.098;2023-04-03T00:27:53;0.80;84.00
21108;DHT22;10712;52.944;9.098;2023-04-03T00:30:21;0.70;83.60
21108;DHT22;10712;52.944;9.098;2023-04-03T00:32:48;0.70;83.20
21108;DHT22;10712;52.944;9.098;2023-04-03T00:35:15;0.60;83.20
21108;DHT22;10712;52.944;9.098;2023-04-03T00:37:42;0.50;83.60
21108;DHT22;10712;52.944;9.098;2023-04-03T00:40:09;0.50;83.70
21108;DHT22;10712;52.944;9.098;2023-04-03T00:42:36;0.50;84.00
21108;DHT22;10712;52.944;9.098;2023-04-03T00:47:29;0.50;84.50
21108;DHT22;10712;52.944;9.098;2023-04-03T00:49:57;0.50;84.80
21108;DHT22;10712;52.944;9.098;2023-04-03T00:52:28;0.60;84.50
21108;DHT22;10712;52.944;9.098;2023-04-03T00:54:59;0.60;84.30
21108;DHT22;10712;52.944;9.098;2023-04-03T00:57:30;0.60;84.30
21108;DHT22;10712;52.944;9.098;2023-04-03T01:00:08;0.60;84.30
21108;DHT22;10712;52.944;9.098;2023-04-03T01:02:36;0.60;84.10
21108;DHT22;10712;52.944;9.098;2023-04-03T01:05:03;0.60;84.10
21108;DHT22;10712;52.944;9.098;2023-04-03T01:07:31;0.60;84.30
21108;DHT22;10712;52.944;9.098;2023-04-03T01:10:06;0.60;84.30
21108;DHT22;10712;52.944;9.098;2023-04-03T01:12:39;0.50;84.20
21108;DHT22;10712;52.944;9.098;2023-04-03T01:15:13;0.50;84.00
21108;DHT22;10712;52.944;9.098;2023-04-03T01:17:56;0.50;83.80
21108;DHT22;10712;52.944;9.098;2023-04-03T01:25:42;0.30;84.40
21108;DHT22;10712;52.944;9.098;2023-04-03T01:28:19;0.30;84.70
21108;DHT22;10712;52.944;9.098;2023-04-03T01:33:35;0.30;84.30
21108;DHT22;10712;52.944;9.098;2023-04-03T01:36:03;0.20;84.10
21108;DHT22;10712;52.944;9.098;2023-04-03T01:38:29;0.10;84.10
21108;DHT22;10712;52.944;9.098;2023-04-03T01:40:56;0.10;84.20
21108;DHT22;10712;52.944;9.098;2023-04-03T01:43:22;0.00;84.60
21108;DHT22;10712;52.944;9.098;2023-04-03T01:45:48;0.00;84.80
21108;DHT22;10712;52.944;9.098;2023-04-03T01:48:16;0.00;85.00
21108;DHT22;10712;52.944;9.098;2023-04-03T01:50:42;0.00;85.10
21108;DHT22;10712;52.944;9.098;2023-04-03T01:53:08;0.00;85.00
21108;DHT22;10712;52.944;9.098;2023-04-03T01:55:34;0.00;84.80
21108;DHT22;10712;52.944;9.098;2023-04-03T01:58:00;-0.10;84.60
21108;DHT22;10712;52.944;9.098;2023-04-03T02:00:26;-0.10;84.50
21108;DHT22;10712;52.944;9.098;2023-04-03T02:02:52;-0.20;84.70
21108;DHT22;10712;52.944;9.098;2023-04-03T02:05:18;-0.30;84.90
21108;DHT22;10712;52.944;9.098;2023-04-03T02:07:44;-0.30;85.00
21108;DHT22;10712;52.944;9.098;2023-04-03T02:10:10;-0.30;85.20
21108;DHT22;10712;52.944;9.098;2023-04-03T02:12:36;-0.30;85.40
21108;DHT22;10712;52.944;9.098;2023-04-03T02:15:02;-0.30;85.60
21108;DHT22;10712;52.944;9.098;2023-04-03T02:17:29;-0.40;85.60
21108;DHT22;10712;52.944;9.098;2023-04-03T02:19:54;-0.40;85.60
21108;DHT22;10712;52.944;9.098;2023-04-03T02:22:20;-0.40;85.60
21108;DHT22;10712;52.944;9.098;2023-04-03T02:24:46;-0.40;85.70
21108;DHT22;10712;52.944;9.098;2023-04-03T02:27:13;-0.50;85.60
21108;DHT22;10712;52.944;9.098;2023-04-03T02:29:39;-0.50;85.60
21108;DHT22;10712;52.944;9.098;2023-04-03T02:32:05;-0.60;85.80
21108;DHT22;10712;52.944;9.098;2023-04-03T02:34:31;-0.60;86.00
21108;DHT22;10712;52.944;9.098;2023-04-03T02:36:59;-0.60;86.30
21108;DHT22;10712;52.944;9.098;2023-04-03T02:39:25;-0.70;86.30
21108;DHT22;10712;52.944;9.098;2023-04-03T02:41:51;-0.70;86.30
21108;DHT22;10712;52.944;9.098;2023-04-03T02:44:22;-0.70;86.30
21108;DHT22;10712;52.944;9.098;2023-04-03T02:46:49;-0.80;86.50
21108;DHT22;10712;52.944;9.098;2023-04-03T02:49:16;-0.70;86.70
21108;DHT22;10712;52.944;9.098;2023-04-03T02:51:42;-0.80;86.70
21108;DHT22;10712;52.944;9.098;2023-04-03T02:54:08;-0.80;86.80
21108;DHT22;10712;52.944;9.098;2023-04-03T02:56:37;-0.80;86.70
21108;DHT22;10712;52.944;9.098;2023-04-03T02:59:03;-0.80;86.70
21108;DHT22;10712;52.944;9.098;2023-04-03T03:01:29;-0.80;86.80
21108;DHT22;10712;52.944;9.098;2023-04-03T03:04:01;-0.80;86.70
21108;DHT22;10712;52.944;9.098;2023-04-03T03:06:27;-0.80;86.80
21108;DHT22;10712;52.944;9.098;2023-04-03T03:08:53;-0.80;86.90
21108;DHT22;10712;52.944;9.098;2023-04-03T03:11:19;-0.90;86.90
21108;DHT22;10712;52.944;9.098;2023-04-03T03:13:46;-0.90;86.90
21108;DHT22;10712;52.944;9.098;2023-04-03T03:16:12;-0.90;87.10
21108;DHT22;10712;52.944;9.098;2023-04-03T03:18:38;-0.90;87.30
21108;DHT22;10712;52.944;9.098;2023-04-03T03:21:04;-0.90;87.30
21108;DHT22;10712;52.944;9.098;2023-04-03T03:23:31;-0.90;87.30
21108;DHT22;10712;52.944;9.098;2023-04-03T03:26:00;-0.90;87.30
21108;DHT22;10712;52.944;9.098;2023-04-03T03:28:34;-0.80;87.30
21108;DHT22;10712;52.944;9.098;2023-04-03T03:31:02;-0.90;87.10
21108;DHT22;10712;52.944;9.098;2023-04-03T03:33:30;-0.90;87.40
21108;DHT22;10712;52.944;9.098;2023-04-03T03:35:56;-0.80;87.50
21108;DHT22;10712;52.944;9.098;2023-04-03T03:38:23;-0.80;87.50
21108;DHT22;10712;52.944;9.098;2023-04-03T03:40:50;-0.80;87.50
21108;DHT22;10712;52.944;9.098;2023-04-03T03:43:19;-0.80;87.50
21108;DHT22;10712;52.944;9.098;2023-04-03T03:45:51;-0.80;87.40
21108;DHT22;10712;52.944;9.098;2023-04-03T03:48:18;-0.80;87.40
21108;DHT22;10712;52.944;9.098;2023-04-03T03:50:46;-0.80;87.40
21108;DHT22;10712;52.944;9.098;2023-04-03T03:53:12;-0.80;87.40
21108;DHT22;10712;52.944;9.098;2023-04-03T03:55:40;-0.90;87.30
21108;DHT22;10712;52.944;9.098;2023-04-03T03:58:06;-0.80;87.50
21108;DHT22;10712;52.944;9.098;2023-04-03T04:00:33;-0.80;87.40
21108;DHT22;10712;52.944;9.098;2023-04-03T04:02:59;-0.80;87.40
21108;DHT22;10712;52.944;9.098;2023-04-03T04:05:26;-0.90;87.40
21108;DHT22;10712;52.944;9.098;2023-04-03T04:07:53;-0.80;87.50
21108;DHT22;10712;52.944;9.098;2023-04-03T04:10:19;-0.80;87.60
21108;DHT22;10712;52.944;9.098;2023-04-03T04:12:45;-0.80;87.50
21108;DHT22;10712;52.944;9.098;2023-04-03T04:15:12;-0.80;87.40
21108;DHT22;10712;52.944;9.098;2023-04-03T04:17:38;-0.80;87.60
21108;DHT22;10712;52.944;9.098;2023-04-03T04:20:08;-0.80;87.10
21108;DHT22;10712;52.944;9.098;2023-04-03T04:22:35;-0.90;86.90
21108;DHT22;10712;52.944;9.098;2023-04-03T04:25:01;-0.90;86.90
21108;DHT22;10712;52.944;9.098;2023-04-03T04:27:27;-0.90;86.80
21108;DHT22;10712;52.944;9.098;2023-04-03T04:29:55;-1.00;86.80
21108;DHT22;10712;52.944;9.098;2023-04-03T04:32:21;-1.00;87.00
21108;DHT22;10712;52.944;9.098;2023-04-03T04:34:48;-1.00;87.20
21108;DHT22;10712;52.944;9.098;2023-04-03T04:37:13;-1.10;87.30
21108;DHT22;10712;52.944;9.098;2023-04-03T04:39:39;-1.10;87.40
21108;DHT22;10712;52.944;9.098;2023-04-03T04:42:05;-1.10;87.40
21108;DHT22;10712;52.944;9.098;2023-04-03T04:44:33;-1.10;87.50
21108;DHT22;10712;52.944;9.098;2023-04-03T04:46:59;-1.10;87.60
21108;DHT22;10712;52.944;9.098;2023-04-03T04:49:25;-1.10;87.60
21108;DHT22;10712;52.944;9.098;2023-04-03T04:51:52;-1.10;87.70
21108;DHT22;10712;52.944;9.098;2023-04-03T04:54:21;-1.10;87.60
21108;DHT22;10712;52.944;9.098;2023-04-03T04:56:48;-1.10;87.60
21108;DHT22;10712;52.944;9.098;2023-04-03T04:59:14;-1.10;87.70
21108;DHT22;10712;52.944;9.098;2023-04-03T05:01:40;-1.20;87.70
21108;DHT22;10712;52.944;9.098;2023-04-03T05:04:10;-1.20;87.70
21108;DHT22;10712;52.944;9.098;2023-04-03T05:06:38;-1.20;87.80
21108;DHT22;10712;52.944;9.098;2023-04-03T05:09:09;-1.20;87.80
21108;DHT22;10712;52.944;9.098;2023-04-03T05:11:35;-1.20;87.70
21108;DHT22;10712;52.944;9.098;2023-04-03T05:14:03;-1.20;87.80
21108;DHT22;10712;52.944;9.098;2023-04-03T05:16:32;-1.20;87.80
21108;DHT22;10712;52.944;9.098;2023-04-03T05:18:59;-1.20;87.90
21108;DHT22;10712;52.944;9.098;2023-04-03T05:21:25;-1.20;88.10
21108;DHT22;10712;52.944;9.098;2023-04-03T05:23:53;-1.20;88.10
21108;DHT22;10712;52.944;9.098;2023-04-03T05:26:20;-1.20;88.30
21108;DHT22;10712;52.944;9.098;2023-04-03T05:28:48;-1.10;88.40
21108;DHT22;10712;52.944;9.098;2023-04-03T05:31:14;-1.10;88.30
21108;DHT22;10712;52.944;9.098;2023-04-03T05:33:41;-1.10;88.40
21108;DHT22;10712;52.944;9.098;2023-04-03T05:36:12;-1.00;88.60
21108;DHT22;10712;52.944;9.098;2023-04-03T05:38:42;-1.00;88.60
21108;DHT22;10712;52.944;9.098;2023-04-03T05:41:08;-0.90;88.60
21108;DHT22;10712;52.944;9.098;2023-04-03T05:43:34;-0.90;88.70
21108;DHT22;10712;52.944;9.098;2023-04-03T05:46:03;-0.80;88.60
21108;DHT22;10712;52.944;9.098;2023-04-03T05:48:30;-0.80;88.60
21108;DHT22;10712;52.944;9.098;2023-04-03T05:50:56;-0.70;88.70
21108;DHT22;10712;52.944;9.098;2023-04-03T05:53:27;-0.70;88.70
21108;DHT22;10712;52.944;9.098;2023-04-03T05:55:58;-0.60;88.70
21108;DHT22;10712;52.944;9.098;2023-04-03T05:58:25;-0.60;88.50
21108;DHT22;10712;52.944;9.098;2023-04-03T06:00:52;-0.50;88.50
21108;DHT22;10712;52.944;9.098;2023-04-03T06:03:18;-0.50;88.50
21108;DHT22;10712;52.944;9.098;2023-04-03T06:05:44;-0.40;88.60
21108;DHT22;10712;52.944;9.098;2023-04-03T06:08:11;-0.40;88.70
21108;DHT22;10712;52.944;9.098;2023-04-03T06:10:38;-0.30;88.80
21108;DHT22;10712;52.944;9.098;2023-04-03T06:13:05;-0.30;88.90
21108;DHT22;10712;52.944;9.098;2023-04-03T06:15:31;-0.20;88.90
21108;DHT22;10712;52.944;9.098;2023-04-03T06:17:58;-0.20;88.90
21108;DHT22;10712;52.944;9.098;2023-04-03T06:20:23;-0.10;88.90
21108;DHT22;10712;52.944;9.098;2023-04-03T06:22:49;0.00;88.90
21108;DHT22;10712;52.944;9.098;2023-04-03T06:25:16;0.10;88.80
21108;DHT22;10712;52.944;9.098;2023-04-03T06:27:44;0.20;88.70
21108;DHT22;10712;52.944;9.098;2023-04-03T06:30:11;0.20;88.60
21108;DHT22;10712;52.944;9.098;2023-04-03T06:32:37;0.30;88.50
21108;DHT22;10712;52.944;9.098;2023-04-03T06:35:05;0.40;88.60
21108;DHT22;10712;52.944;9.098;2023-04-03T06:37:31;0.40;88.60
21108;DHT22;10712;52.944;9.098;2023-04-03T06:39:58;0.50;88.60
21108;DHT22;10712;52.944;9.098;2023-04-03T06:42:26;0.60;88.70
21108;DHT22;10712;52.944;9.098;2023-04-03T06:45:08;0.70;88.70
21108;DHT22;10712;52.944;9.098;2023-04-03T06:47:36;0.90;88.80
21108;DHT22;10712;52.944;9.098;2023-04-03T06:50:02;1.00;88.50
21108;DHT22;10712;52.944;9.098;2023-04-03T06:52:28;1.10;88.30
21108;DHT22;10712;52.944;9.098;2023-04-03T06:54:54;1.20;88.10
21108;DHT22;10712;52.944;9.098;2023-04-03T06:57:23;1.30;87.90
21108;DHT22;10712;52.944;9.098;2023-04-03T06:59:50;1.40;87.60
21108;DHT22;10712;52.944;9.098;2023-04-03T07:02:15;1.50;87.10
21108;DHT22;10712;52.944;9.098;2023-04-03T07:04:41;1.60;86.80
21108;DHT22;10712;52.944;9.098;2023-04-03T07:07:07;1.70;86.20
21108;DHT22;10712;52.944;9.098;2023-04-03T07:09:33;1.80;86.00
21108;DHT22;10712;52.944;9.098;2023-04-03T07:11:59;1.90;85.80
21108;DHT22;10712;52.944;9.098;2023-04-03T07:14:25;2.00;85.20
21108;DHT22;10712;52.944;9.098;2023-04-03T07:16:51;2.10;85.00
21108;DHT22;10712;52.944;9.098;2023-04-03T07:19:17;2.20;84.30
21108;DHT22;10712;52.944;9.098;2023-04-03T07:21:44;2.30;83.70
21108;DHT22;10712;52.944;9.098;2023-04-03T07:24:10;2.30;83.50
21108;DHT22;10712;52.944;9.098;2023-04-03T07:26:36;2.40;83.30
21108;DHT22;10712;52.944;9.098;2023-04-03T07:29:02;2.50;83.20
21108;DHT22;10712;52.944;9.098;2023-04-03T07:31:28;2.60;83.30
21108;DHT22;10712;52.944;9.098;2023-04-03T07:33:54;2.70;82.70
21108;DHT22;10712;52.944;9.098;2023-04-03T07:36:21;2.80;81.60
21108;DHT22;10712;52.944;9.098;2023-04-03T07:38:47;2.90;81.30
21108;DHT22;10712;52.944;9.098;2023-04-03T07:41:15;3.00;80.70
21108;DHT22;10712;52.944;9.098;2023-04-03T07:43:44;3.10;80.80
21108;DHT22;10712;52.944;9.098;2023-04-03T07:46:10;3.20;80.30
21108;DHT22;10712;52.944;9.098;2023-04-03T07:48:36;3.30;79.10
21108;DHT22;10712;52.944;9.098;2023-04-03T07:51:03;3.40;78.30
21108;DHT22;10712;52.944;9.098;2023-04-03T07:53:30;3.50;76.80
21108;DHT22;10712;52.944;9.098;2023-04-03T07:55:57;3.50;76.40
21108;DHT22;10712;52.944;9.098;2023-04-03T07:58:24;3.60;76.80
21108;DHT22;10712;52.944;9.098;2023-04-03T08:00:51;3.70;75.40
21108;DHT22;10712;52.944;9.098;2023-04-03T08:03:17;3.80;75.90
21108;DHT22;10712;52.944;9.098;2023-04-03T08:05:46;3.90;75.40
21108;DHT22;10712;52.944;9.098;2023-04-03T08:08:15;4.00;75.70
21108;DHT22;10712;52.944;9.098;2023-04-03T08:10:43;4.10;75.00
21108;DHT22;10712;52.944;9.098;2023-04-03T08:13:14;4.20;74.60
21108;DHT22;10712;52.944;9.098;2023-04-03T08:15:40;4.20;73.80
21108;DHT22;10712;52.944;9.098;2023-04-03T08:18:05;4.30;72.20
21108;DHT22;10712;52.944;9.098;2023-04-03T08:20:31;4.30;71.60
21108;DHT22;10712;52.944;9.098;2023-04-03T08:22:57;4.40;71.60
21108;DHT22;10712;52.944;9.098;2023-04-03T08:25:23;4.40;72.80
21108;DHT22;10712;52.944;9.098;2023-04-03T08:27:49;4.50;71.60
21108;DHT22;10712;52.944;9.098;2023-04-03T08:30:15;4.60;70.90
21108;DHT22;10712;52.944;9.098;2023-04-03T08:32:40;4.60;72.30
21108;DHT22;10712;52.944;9.098;2023-04-03T08:35:10;4.70;71.30
21108;DHT22;10712;52.944;9.098;2023-04-03T08:37:37;4.80;70.80
21108;DHT22;10712;52.944;9.098;2023-04-03T08:40:05;4.90;70.20
21108;DHT22;10712;52.944;9.098;2023-04-03T08:48:29;5.10;71.10
21108;DHT22;10712;52.944;9.098;2023-04-03T08:51:00;5.20;70.10
21108;DHT22;10712;52.944;9.098;2023-04-03T08:53:34;5.20;69.60
21108;DHT22;10712;52.944;9.098;2023-04-03T08:56:09;5.30;69.30
21108;DHT22;10712;52.944;9.098;2023-04-03T08:58:49;5.40;67.90
21108;DHT22;10712;52.944;9.098;2023-04-03T09:01:22;5.40;67.60
21108;DHT22;10712;52.944;9.098;2023-04-03T09:03:49;5.40;66.70
21108;DHT22;10712;52.944;9.098;2023-04-03T09:06:20;5.50;66.00
21108;DHT22;10712;52.944;9.098;2023-04-03T09:14:39;5.60;65.50
21108;DHT22;10712;52.944;9.098;2023-04-03T09:17:21;5.70;65.30
21108;DHT22;10712;52.944;9.098;2023-04-03T09:19:56;5.80;65.10
21108;DHT22;10712;52.944;9.098;2023-04-03T09:22:33;5.80;65.00
21108;DHT22;10712;52.944;9.098;2023-04-03T09:25:16;5.90;64.40
21108;DHT22;10712;52.944;9.098;2023-04-03T09:27:45;5.90;64.10
21108;DHT22;10712;52.944;9.098;2023-04-03T09:30:19;6.00;64.00
21108;DHT22;10712;52.944;9.098;2023-04-03T09:32:49;6.10;64.10
21108;DHT22;10712;52.944;9.098;2023-04-03T09:37:53;6.20;62.30
21108;DHT22;10712;52.944;9.098;2023-04-03T09:42:53;6.20;62.20
21108;DHT22;10712;52.944;9.098;2023-04-03T09:45:30;6.30;62.60
21108;DHT22;10712;52.944;9.098;2023-04-03T09:48:08;6.40;60.80
21108;DHT22;10712;52.944;9.098;2023-04-03T09:53:35;6.40;61.20
21108;DHT22;10712;52.944;9.098;2023-04-03T09:56:19;6.40;61.70
21108;DHT22;10712;52.944;9.098;2023-04-03T10:01:34;6.60;61.70
21108;DHT22;10712;52.944;9.098;2023-04-03T10:04:15;6.60;60.60
21108;DHT22;10712;52.944;9.098;2023-04-03T10:12:05;6.80;60.60
21108;DHT22;10712;52.944;9.098;2023-04-03T10:14:53;6.90;58.80
21108;DHT22;10712;52.944;9.098;2023-04-03T10:20:40;7.00;58.70
21108;DHT22;10712;52.944;9.098;2023-04-03T10:34:46;6.90;56.50
21108;DHT22;10712;52.944;9.098;2023-04-03T10:37:25;7.00;57.30
21108;DHT22;10712;52.944;9.098;2023-04-03T10:40:20;7.00;55.90
21108;DHT22;10712;52.944;9.098;2023-04-03T10:46:09;7.30;59.00
21108;DHT22;10712;52.944;9.098;2023-04-03T10:51:37;7.50;57.50
21108;DHT22;10712;52.944;9.098;2023-04-03T10:54:26;7.60;58.00
21108;DHT22;10712;52.944;9.098;2023-04-03T10:57:05;7.70;57.20
21108;DHT22;10712;52.944;9.098;2023-04-03T10:59:56;7.80;56.60
21108;DHT22;10712;52.944;9.098;2023-04-03T11:02:33;7.90;57.80
21108;DHT22;10712;52.944;9.098;2023-04-03T11:05:31;8.00;57.10
21108;DHT22;10712;52.944;9.098;2023-04-03T11:11:08;8.00;53.30
21108;DHT22;10712;52.944;9.098;2023-04-03T11:13:45;7.80;54.90
21108;DHT22;10712;52.944;9.098;2023-04-03T11:16:23;7.80;55.60
21108;DHT22;10712;52.944;9.098;2023-04-03T11:19:11;7.80;55.80
21108;DHT22;10712;52.944;9.098;2023-04-03T11:21:46;7.80;55.90
21108;DHT22;10712;52.944;9.098;2023-04-03T11:24:27;7.70;55.20
21108;DHT22;10712;52.944;9.098;2023-04-03T11:26:56;7.70;56.50
21108;DHT22;10712;52.944;9.098;2023-04-03T11:29:29;7.90;57.50
21108;DHT22;10712;52.944;9.098;2023-04-03T11:35:10;8.20;57.20
21108;DHT22;10712;52.944;9.098;2023-04-03T11:37:41;8.30;56.50
21108;DHT22;10712;52.944;9.098;2023-04-03T11:40:27;8.40;56.30
21108;DHT22;10712;52.944;9.098;2023-04-03T11:45:31;8.70;56.30
21108;DHT22;10712;52.944;9.098;2023-04-03T11:48:04;8.80;56.00
21108;DHT22;10712;52.944;9.098;2023-04-03T11:50:48;8.80;55.70
21108;DHT22;10712;52.944;9.098;2023-04-03T11:55:46;8.90;54.50
21108;DHT22;10712;52.944;9.098;2023-04-03T11:58:38;8.80;52.90
21108;DHT22;10712;52.944;9.098;2023-04-03T12:01:08;8.50;53.60
21108;DHT22;10712;52.944;9.098;2023-04-03T12:32:23;7.70;57.60
21108;DHT22;10712;52.944;9.098;2023-04-03T12:35:14;7.90;57.70
21108;DHT22;10712;52.944;9.098;2023-04-03T12:43:49;8.30;55.80
21108;DHT22;10712;52.944;9.098;2023-04-03T12:46:33;8.40;55.40
21108;DHT22;10712;52.944;9.098;2023-04-03T12:51:57;8.60;54.20
21108;DHT22;10712;52.944;9.098;2023-04-03T12:54:38;8.60;54.00
21108;DHT22;10712;52.944;9.098;2023-04-03T12:57:24;8.60;54.80
21108;DHT22;10712;52.944;9.098;2023-04-03T12:59:52;8.70;55.50
21108;DHT22;10712;52.944;9.098;2023-04-03T13:02:35;8.90;55.30
21108;DHT22;10712;52.944;9.098;2023-04-03T13:05:09;9.00;56.50
21108;DHT22;10712;52.944;9.098;2023-04-03T13:07:42;9.00;55.10
21108;DHT22;10712;52.944;9.098;2023-04-03T13:12:45;8.90;54.10
21108;DHT22;10712;52.944;9.098;2023-04-03T13:15:21;8.70;53.80
21108;DHT22;10712;52.944;9.098;2023-04-03T13:17:51;8.50;54.90
21108;DHT22;10712;52.944;9.098;2023-04-03T13:20:23;8.30;53.20
21108;DHT22;10712;52.944;9.098;2023-04-03T13:23:01;8.20;54.70
21108;DHT22;10712;52.944;9.098;2023-04-03T13:25:33;8.10;54.30
21108;DHT22;10712;52.944;9.098;2023-04-03T13:28:02;8.20;54.70
21108;DHT22;10712;52.944;9.098;2023-04-03T13:30:35;8.30;54.80
21108;DHT22;10712;52.944;9.098;2023-04-03T13:33:05;8.30;53.90
21108;DHT22;10712;52.944;9.098;2023-04-03T13:35:44;8.40;54.40
21108;DHT22;10712;52.944;9.098;2023-04-03T13:40:57;8.60;54.60
21108;DHT22;10712;52.944;9.098;2023-04-03T13:43:31;8.60;55.40
21108;DHT22;10712;52.944;9.098;2023-04-03T13:46:22;8.70;54.60
21108;DHT22;10712;52.944;9.098;2023-04-03T13:48:50;8.70;54.60
21108;DHT22;10712;52.944;9.098;2023-04-03T13:51:28;8.90;53.30
21108;DHT22;10712;52.944;9.098;2023-04-03T13:53:56;9.00;54.20
21108;DHT22;10712;52.944;9.098;2023-04-03T13:56:29;9.00;52.50
21108;DHT22;10712;52.944;9.098;2023-04-03T13:59:20;9.10;52.40
21108;DHT22;10712;52.944;9.098;2023-04-03T14:02:12;9.10;51.50
21108;DHT22;10712;52.944;9.098;2023-04-03T14:04:46;9.00;52.20
21108;DHT22;10712;52.944;9.098;2023-04-03T14:07:21;9.10;52.80
21108;DHT22;10712;52.944;9.098;2023-04-03T14:09:48;9.10;51.50
21108;DHT22;10712;52.944;9.098;2023-04-03T14:15:00;9.20;52.90
21108;DHT22;10712;52.944;9.098;2023-04-03T14:17:29;9.30;53.00
21108;DHT22;10712;52.944;9.098;2023-04-03T14:19:57;9.20;52.80
21108;DHT22;10712;52.944;9.098;2023-04-03T14:22:29;9.10;52.00
21108;DHT22;10712;52.944;9.098;2023-04-03T14:24:58;9.00;52.60
21108;DHT22;10712;52.944;9.098;2023-04-03T14:27:29;8.90;52.70
21108;DHT22;10712;52.944;9.098;2023-04-03T14:30:01;8.90;53.60
21108;DHT22;10712;52.944;9.098;2023-04-03T14:32:29;8.90;53.80
21108;DHT22;10712;52.944;9.098;2023-04-03T14:34:56;8.80;51.00
21108;DHT22;10712;52.944;9.098;2023-04-03T14:37:27;8.60;52.40
21108;DHT22;10712;52.944;9.098;2023-04-03T14:39:56;8.50;52.70
21108;DHT22;10712;52.944;9.098;2023-04-03T14:42:27;8.40;53.60
21108;DHT22;10712;52.944;9.098;2023-04-03T14:45:10;8.40;53.90
21108;DHT22;10712;52.944;9.098;2023-04-03T14:47:54;8.40;53.90
21108;DHT22;10712;52.944;9.098;2023-04-03T14:50:26;8.50;53.70
21108;DHT22;10712;52.944;9.098;2023-04-03T14:52:56;8.60;53.20
21108;DHT22;10712;52.944;9.098;2023-04-03T14:55:25;8.70;52.90
21108;DHT22;10712;52.944;9.098;2023-04-03T14:57:52;8.80;52.60
21108;DHT22;10712;52.944;9.098;2023-04-03T15:00:20;8.80;52.40
21108;DHT22;10712;52.944;9.098;2023-04-03T15:02:48;8.80;51.90
21108;DHT22;10712;52.944;9.098;2023-04-03T15:05:15;8.80;52.30
21108;DHT22;10712;52.944;9.098;2023-04-03T15:07:43;8.70;52.50
21108;DHT22;10712;52.944;9.098;2023-04-03T15:12:39;8.70;52.20
21108;DHT22;10712;52.944;9.098;2023-04-03T15:15:06;8.70;52.80
21108;DHT22;10712;52.944;9.098;2023-04-03T15:17:33;8.70;51.80
21108;DHT22;10712;52.944;9.098;2023-04-03T15:20:02;8.50;50.50
21108;DHT22;10712;52.944;9.098;2023-04-03T15:22:28;8.40;51.40
21108;DHT22;10712;52.944;9.098;2023-04-03T15:24:54;8.30;52.30
21108;DHT22;10712;52.944;9.098;2023-04-03T15:27:19;8.20;52.40
21108;DHT22;10712;52.944;9.098;2023-04-03T15:29:45;8.10;52.40
21108;DHT22;10712;52.944;9.098;2023-04-03T15:32:12;8.20;52.00
21108;DHT22;10712;52.944;9.098;2023-04-03T15:34:39;8.30;53.50
21108;DHT22;10712;52.944;9.098;2023-04-03T15:37:05;8.40;53.00
21108;DHT22;10712;52.944;9.098;2023-04-03T15:39:31;8.40;53.90
21108;DHT22;10712;52.944;9.098;2023-04-03T15:41:58;8.50;52.80
21108;DHT22;10712;52.944;9.098;2023-04-03T15:44:34;8.40;53.40
21108;DHT22;10712;52.944;9.098;2023-04-03T15:47:02;8.30;54.40
21108;DHT22;10712;52.944;9.098;2023-04-03T15:49:28;8.10;54.50
21108;DHT22;10712;52.944;9.098;2023-04-03T15:51:54;8.00;54.80
21108;DHT22;10712;52.944;9.098;2023-04-03T15:54:20;8.00;54.90
21108;DHT22;10712;52.944;9.098;2023-04-03T15:56:46;8.00;54.30
21108;DHT22;10712;52.944;9.098;2023-04-03T15:59:12;8.00;54.60
21108;DHT22;10712;52.944;9.098;2023-04-03T16:01:38;8.00;54.20
21108;DHT22;10712;52.944;9.098;2023-04-03T16:04:07;8.10;53.90
21108;DHT22;10712;52.944;9.098;2023-04-03T16:06:35;8.10;52.70
21108;DHT22;10712;52.944;9.098;2023-04-03T16:09:01;8.10;53.90
21108;DHT22;10712;52.944;9.098;2023-04-03T16:11:28;8.10;53.70
21108;DHT22;10712;52.944;9.098;2023-04-03T16:13:54;8.10;53.60
21108;DHT22;10712;52.944;9.098;2023-04-03T16:16:21;8.10;53.40
21108;DHT22;10712;52.944;9.098;2023-04-03T16:18:48;8.10;54.60
21108;DHT22;10712;52.944;9.098;2023-04-03T16:21:16;8.10;55.20
21108;DHT22;10712;52.944;9.098;2023-04-03T16:23:44;8.00;55.70
21108;DHT22;10712;52.944;9.098;2023-04-03T16:26:10;8.00;55.30
21108;DHT22;10712;52.944;9.098;2023-04-03T16:28:36;8.00;54.40
21108;DHT22;10712;52.944;9.098;2023-04-03T16:31:02;7.90;55.00
21108;DHT22;10712;52.944;9.098;2023-04-03T16:33:29;7.80;55.50
21108;DHT22;10712;52.944;9.098;2023-04-03T16:35:55;7.70;55.90
21108;DHT22;10712;52.944;9.098;2023-04-03T16:38:21;7.70;55.90
21108;DHT22;10712;52.944;9.098;2023-04-03T16:40:48;7.60;55.90
21108;DHT22;10712;52.944;9.098;2023-04-03T16:43:15;7.60;55.40
21108;DHT22;10712;52.944;9.098;2023-04-03T16:45:42;7.50;55.70
21108;DHT22;10712;52.944;9.098;2023-04-03T16:48:08;7.50;56.30
21108;DHT22;10712;52.944;9.098;2023-04-03T16:50:34;7.40;56.10
21108;DHT22;10712;52.944;9.098;2023-04-03T16:53:00;7.40;56.60
21108;DHT22;10712;52.944;9.098;2023-04-03T16:55:28;7.40;56.70
21108;DHT22;10712;52.944;9.098;2023-04-03T16:57:54;7.40;57.00
21108;DHT22;10712;52.944;9.098;2023-04-03T17:00:20;7.30;56.90
21108;DHT22;10712;52.944;9.098;2023-04-03T17:02:46;7.30;56.60
21108;DHT22;10712;52.944;9.098;2023-04-03T17:05:12;7.20;56.60
21108;DHT22;10712;52.944;9.098;2023-04-03T17:07:38;7.10;56.20
21108;DHT22;10712;52.944;9.098;2023-04-03T17:10:04;7.00;56.40
21108;DHT22;10712;52.944;9.098;2023-04-03T17:12:30;7.00;56.50
21108;DHT22;10712;52.944;9.098;2023-04-03T17:14:56;6.90;56.90
21108;DHT22;10712;52.944;9.098;2023-04-03T17:17:23;6.90;57.00
21108;DHT22;10712;52.944;9.098;2023-04-03T17:19:51;6.80;57.80
21108;DHT22;10712;52.944;9.098;2023-04-03T17:22:19;6.70;58.10
21108;DHT22;10712;52.944;9.098;2023-04-03T17:24:45;6.60;58.50
21108;DHT22;10712;52.944;9.098;2023-04-03T17:27:11;6.50;58.80
21108;DHT22;10712;52.944;9.098;2023-04-03T17:29:37;6.40;59.00
21108;DHT22;10712;52.944;9.098;2023-04-03T17:32:03;6.40;59.00
21108;DHT22;10712;52.944;9.098;2023-04-03T17:34:29;6.30;59.30
21108;DHT22;10712;52.944;9.098;2023-04-03T17:36:55;6.20;59.40
21108;DHT22;10712;52.944;9.098;2023-04-03T17:39:20;6.10;60.00
21108;DHT22;10712;52.944;9.098;2023-04-03T17:41:46;6.00;60.20
21108;DHT22;10712;52.944;9.098;2023-04-03T17:44:14;5.90;60.60
21108;DHT22;10712;52.944;9.098;2023-04-03T17:46:39;5.80;60.70
21108;DHT22;10712;52.944;9.098;2023-04-03T17:49:05;5.70;61.10
21108;DHT22;10712;52.944;9.098;2023-04-03T17:51:31;5.60;61.40
21108;DHT22;10712;52.944;9.098;2023-04-03T17:53:59;5.50;62.00